createdAt,value
2017-04-11T03:41:42.182Z,0
2017-04-11T03:42:23.241Z,0
2017-04-11T03:43:04.162Z,0
2017-04-11T03:43:45.188Z,0
2017-04-11T03:44:26.046Z,0
2017-04-11T03:45:06.975Z,0
2017-04-11T03:45:47.828Z,0
2017-04-11T03:46:28.769Z,0
2017-04-11T03:47:10.182Z,0
2017-04-11T03:47:50.940Z,0
2017-04-11T03:48:31.792Z,0
2017-04-11T03:49:12.369Z,0
2017-04-11T03:49:52.939Z,0
2017-04-11T03:50:33.521Z,0
2017-04-11T03:51:14.098Z,0
2017-04-11T03:52:09.238Z,0
2017-04-11T03:52:49.815Z,0
2017-04-11T03:53:30.404Z,0
2017-04-11T03:54:10.971Z,0
2017-04-11T03:54:51.560Z,0
2017-04-11T03:55:32.140Z,0
2017-04-11T03:56:12.718Z,0
2017-04-11T03:56:53.301Z,0
2017-04-11T03:57:33.879Z,0
2017-04-11T03:58:14.459Z,0
2017-04-11T03:58:55.039Z,0
2017-04-11T03:59:35.658Z,0
2017-04-11T04:00:16.193Z,0
2017-04-11T04:00:56.768Z,0
2017-04-11T04:01:37.348Z,0
2017-04-11T04:02:17.922Z,4
2017-04-11T04:02:58.494Z,4
2017-04-11T04:03:39.071Z,4
2017-04-11T04:04:19.657Z,4
2017-04-11T04:05:28.357Z,0
2017-04-11T04:06:08.942Z,4
2017-04-11T04:06:49.531Z,4
2017-04-11T04:07:30.113Z,8
2017-04-11T04:08:10.697Z,4
2017-04-11T04:08:51.277Z,8
2017-04-11T04:09:31.849Z,4
2017-04-11T04:10:12.430Z,8
2017-04-11T04:10:53.021Z,8
2017-04-11T04:11:33.594Z,8
2017-04-11T04:12:14.176Z,12
2017-04-11T04:12:54.748Z,16
2017-04-11T04:13:35.331Z,16
2017-04-11T04:14:15.937Z,16
2017-04-11T04:14:56.482Z,16
2017-04-11T04:15:37.066Z,20
2017-04-11T04:16:17.650Z,20
2017-04-11T04:16:58.227Z,24
2017-04-11T04:17:38.806Z,28
2017-04-11T04:18:19.389Z,32
2017-04-11T04:18:59.964Z,36
2017-04-11T04:19:40.559Z,36
2017-04-11T04:20:21.138Z,44
2017-04-11T04:21:01.712Z,44
2017-04-11T04:21:42.318Z,52
2017-04-11T04:22:22.865Z,52
2017-04-11T04:23:03.452Z,60
2017-04-11T04:23:44.030Z,64
2017-04-11T04:24:24.618Z,64
2017-04-11T04:25:05.207Z,72
2017-04-11T04:25:45.789Z,80
2017-04-11T04:26:26.363Z,84
2017-04-11T04:27:06.945Z,96
2017-04-11T04:27:47.523Z,104
2017-04-11T04:28:28.112Z,112
2017-04-11T04:29:08.694Z,120
2017-04-11T04:29:49.267Z,124
2017-04-11T04:30:29.852Z,136
2017-04-11T04:31:10.442Z,144
2017-04-11T04:31:51.019Z,156
2017-04-11T04:32:31.606Z,172
2017-04-11T04:33:12.190Z,184
2017-04-11T04:33:52.769Z,204
2017-04-11T04:34:33.352Z,216
2017-04-11T04:35:13.932Z,232
2017-04-11T04:35:54.508Z,248
2017-04-11T04:36:35.095Z,268
2017-04-11T04:37:15.674Z,280
2017-04-11T04:37:56.245Z,296
2017-04-11T04:38:36.821Z,316
2017-04-11T04:39:17.396Z,340
2017-04-11T04:39:57.965Z,364
2017-04-11T04:40:38.551Z,392
2017-04-11T04:41:19.116Z,424
2017-04-11T04:41:59.695Z,460
2017-04-11T04:42:40.271Z,492
2017-04-11T04:43:20.859Z,520
2017-04-11T04:44:01.429Z,540
2017-04-11T04:44:42.012Z,564
2017-04-11T04:45:22.595Z,588
2017-04-11T04:46:03.176Z,612
2017-04-11T04:46:43.756Z,648
2017-04-11T04:47:24.330Z,668
2017-04-11T04:48:04.919Z,688
2017-04-11T04:48:45.499Z,696
2017-04-11T04:49:26.079Z,708
2017-04-11T04:50:06.653Z,704
2017-04-11T04:50:47.230Z,704
2017-04-11T04:51:27.809Z,708
2017-04-11T04:52:08.390Z,712
2017-04-11T04:52:48.982Z,720
2017-04-11T04:53:29.564Z,732
2017-04-11T04:54:10.122Z,732
2017-04-11T04:54:50.701Z,736
2017-04-11T04:55:31.290Z,736
2017-04-11T04:56:11.869Z,728
2017-04-11T04:56:52.450Z,736
2017-04-11T04:57:33.028Z,744
2017-04-11T04:58:13.608Z,760
2017-04-11T04:58:54.189Z,772
2017-04-11T04:59:34.774Z,776
2017-04-11T05:01:52.702Z,772
2017-04-11T05:02:33.271Z,776
2017-04-11T05:03:13.859Z,784
2017-04-11T05:03:54.441Z,804
2017-04-11T05:04:35.017Z,836
2017-04-11T05:05:15.596Z,880
2017-04-11T05:05:56.170Z,924
2017-04-11T05:06:36.750Z,956
2017-04-11T05:07:17.324Z,976
2017-04-11T05:07:57.915Z,1000
2017-04-11T05:08:38.495Z,1040
2017-04-11T05:09:19.067Z,1100
2017-04-11T05:09:59.662Z,1204
2017-04-11T05:10:40.236Z,1332
2017-04-11T05:11:20.815Z,1480
2017-04-11T05:12:01.386Z,1632
2017-04-11T05:12:41.959Z,1788
2017-04-11T05:13:22.532Z,1952
2017-04-11T05:14:03.108Z,2128
2017-04-11T05:14:43.689Z,2348
2017-04-11T05:15:24.263Z,2580
2017-04-11T05:16:04.844Z,2772
2017-04-11T05:16:45.423Z,2952
2017-04-11T05:17:26.008Z,3156
2017-04-11T05:18:06.587Z,3388
2017-04-11T05:18:47.172Z,3620
2017-04-11T05:19:27.750Z,3844
2017-04-11T05:20:08.326Z,4116
2017-04-11T05:20:48.907Z,4372
2017-04-11T05:21:29.474Z,4620
2017-04-11T05:22:10.051Z,4824
2017-04-11T05:22:50.635Z,5000
2017-04-11T05:23:31.218Z,5172
2017-04-11T05:24:11.784Z,5396
2017-04-11T05:24:52.367Z,5660
2017-04-11T05:25:32.951Z,5928
2017-04-11T05:26:13.529Z,6216
2017-04-11T05:26:54.106Z,6508
2017-04-11T05:27:34.691Z,6776
2017-04-11T05:28:15.277Z,6984
2017-04-11T05:28:55.866Z,7132
2017-04-11T05:29:36.443Z,7248
2017-04-11T05:30:17.019Z,7348
2017-04-11T05:30:57.583Z,7460
2017-04-11T05:31:38.160Z,7568
2017-04-11T05:32:18.749Z,7668
2017-04-11T05:32:59.327Z,7776
2017-04-11T05:33:39.910Z,7908
2017-04-11T05:34:20.495Z,8052
2017-04-11T05:35:01.079Z,8200
2017-04-11T05:35:41.661Z,8332
2017-04-11T05:36:22.228Z,8444
2017-04-11T05:37:02.811Z,8568
2017-04-11T05:37:43.392Z,8720
2017-04-11T05:38:23.966Z,8908
2017-04-11T05:39:04.536Z,9132
2017-04-11T05:39:45.118Z,9336
2017-04-11T05:40:25.700Z,9524
2017-04-11T05:41:06.287Z,9656
2017-04-11T05:41:46.867Z,9716
2017-04-11T05:42:27.463Z,9696
2017-04-11T05:43:08.038Z,9592
2017-04-11T05:43:48.612Z,9408
2017-04-11T05:44:29.191Z,9212
2017-04-11T05:45:09.774Z,9072
2017-04-11T05:47:27.720Z,9168
2017-04-11T05:48:08.303Z,9272
2017-04-11T05:48:48.885Z,9408
2017-04-11T05:49:29.471Z,9572
2017-04-11T05:50:10.048Z,9816
2017-04-11T05:50:50.634Z,10152
2017-04-11T05:51:31.210Z,10540
2017-04-11T05:52:11.789Z,10900
2017-04-11T05:52:52.366Z,11168
2017-04-11T05:53:32.944Z,11328
2017-04-11T05:54:13.525Z,11440
2017-04-11T05:54:54.113Z,11596
2017-04-11T05:55:34.687Z,11836
2017-04-11T05:56:15.269Z,12036
2017-04-11T05:56:55.847Z,12240
2017-04-11T05:57:36.434Z,12464
2017-04-11T05:58:17.017Z,12628
2017-04-11T05:58:57.594Z,12772
2017-04-11T05:59:38.175Z,12952
2017-04-11T06:00:18.763Z,13168
2017-04-11T06:01:10.884Z,13492
2017-04-11T06:01:51.472Z,13768
2017-04-11T06:02:32.053Z,14028
2017-04-11T06:03:12.638Z,14244
2017-04-11T06:03:53.223Z,14456
2017-04-11T06:04:33.808Z,14976
2017-04-11T06:05:14.387Z,15536
2017-04-11T06:05:54.972Z,16252
2017-04-11T06:06:35.554Z,19904
2017-04-11T06:07:16.129Z,29568
2017-04-11T06:07:56.719Z,36064
2017-04-11T06:08:37.304Z,37920
2017-04-11T06:09:17.880Z,38560
2017-04-11T06:09:58.454Z,38848
2017-04-11T06:10:39.034Z,38048
2017-04-11T06:11:19.617Z,38336
2017-04-11T06:12:00.199Z,38272
2017-04-11T06:12:40.781Z,36864
2017-04-11T06:13:21.348Z,34176
2017-04-11T06:14:01.931Z,31552
2017-04-11T06:14:42.517Z,29024
2017-04-11T06:15:23.092Z,26656
2017-04-11T06:16:03.670Z,26976
2017-04-11T06:16:44.261Z,27904
2017-04-11T06:17:24.841Z,30368
2017-04-11T06:18:05.417Z,30912
2017-04-11T06:18:45.992Z,31616
2017-04-11T06:19:26.569Z,32352
2017-04-11T06:20:07.151Z,34880
2017-04-11T06:20:47.726Z,37312
2017-04-11T06:21:28.308Z,38336
2017-04-11T06:22:08.890Z,40288
2017-04-11T06:22:49.468Z,40064
2017-04-11T06:23:30.042Z,42176
2017-04-11T06:24:10.624Z,43712
2017-04-11T06:24:51.207Z,43616
2017-04-11T06:25:31.769Z,44448
2017-04-11T06:26:12.359Z,44928
2017-04-11T06:26:52.946Z,44576
2017-04-11T06:27:33.529Z,43872
2017-04-11T06:28:14.111Z,46592
2017-04-11T06:28:54.689Z,46720
2017-04-11T06:29:35.261Z,47616
2017-04-11T06:30:15.842Z,49184
2017-04-11T06:30:56.428Z,49568
2017-04-11T06:31:37.013Z,51136
2017-04-11T06:32:17.596Z,51104
2017-04-11T06:32:58.175Z,50592
2017-04-11T06:33:38.761Z,49696
2017-04-11T06:34:19.345Z,47104
2017-04-11T06:34:59.932Z,45632
2017-04-11T06:35:40.507Z,43136
2017-04-11T06:36:21.095Z,41792
2017-04-11T06:37:01.673Z,39552
2017-04-11T06:37:42.253Z,39840
2017-04-11T06:38:22.844Z,45216
2017-04-11T06:39:03.420Z,46144
2017-04-11T06:39:43.999Z,47872
2017-04-11T06:40:24.580Z,48992
2017-04-11T06:41:05.165Z,46368
2017-04-11T06:41:45.747Z,46048
2017-04-11T06:42:26.339Z,43328
2017-04-11T06:43:06.918Z,34688
2017-04-11T06:43:47.502Z,35968
2017-04-11T06:46:20.713Z,51104
2017-04-11T06:47:01.295Z,51904
2017-04-11T06:47:41.881Z,53056
2017-04-11T06:48:22.462Z,47680
2017-04-11T06:49:03.040Z,34208
2017-04-11T06:49:43.612Z,29152
2017-04-11T06:50:24.199Z,35552
2017-04-11T06:51:04.774Z,33312
2017-04-11T06:51:45.366Z,32224
2017-04-11T06:52:25.932Z,34240
2017-04-11T06:53:06.537Z,36256
2017-04-11T06:53:47.097Z,39744
2017-04-11T06:54:27.681Z,43360
2017-04-11T06:55:08.256Z,45120
2017-04-11T06:55:48.846Z,44832
2017-04-11T06:56:29.421Z,45760
2017-04-11T06:57:09.998Z,45216
2017-04-11T06:57:50.574Z,45440
2017-04-11T06:58:31.145Z,45696
2017-04-11T06:59:11.736Z,46016
2017-04-11T06:59:52.321Z,47040
2017-04-11T07:00:32.896Z,42656
2017-04-11T07:01:13.472Z,43616
2017-04-11T07:01:54.058Z,41792
2017-04-11T07:02:34.640Z,41792
2017-04-11T07:03:15.227Z,41984
2017-04-11T07:03:55.805Z,53440
2017-04-11T07:04:36.394Z,46528
2017-04-11T07:05:16.979Z,47840
2017-04-11T07:05:57.561Z,51584
2017-04-11T07:06:38.155Z,57280
2017-04-11T07:07:18.736Z,51520
2017-04-11T07:07:59.331Z,59584
2017-04-11T07:08:39.903Z,57184
2017-04-11T07:09:20.482Z,58752
2017-04-11T07:10:01.076Z,57504
2017-04-11T07:10:41.661Z,60768
2017-04-11T07:11:22.247Z,59776
2017-04-11T07:12:02.843Z,59168
2017-04-11T07:13:00.371Z,59264
2017-04-11T07:13:40.957Z,60608
2017-04-11T07:14:21.549Z,62016
2017-04-11T07:15:02.131Z,61248
2017-04-11T07:15:42.713Z,59168
2017-04-11T07:16:23.303Z,52640
2017-04-11T07:17:03.890Z,60928
2017-04-11T07:17:44.478Z,59232
2017-04-11T07:18:25.071Z,49248
2017-04-11T07:19:05.650Z,40960
2017-04-11T07:19:46.231Z,32832
2017-04-11T07:20:26.818Z,35680
2017-04-11T07:21:07.406Z,36064
2017-04-11T07:21:47.991Z,49280
2017-04-11T07:22:28.577Z,61536
2017-04-11T07:23:09.151Z,62176
2017-04-11T07:23:49.739Z,61312
2017-04-11T07:24:30.311Z,60416
2017-04-11T07:25:10.882Z,60288
2017-04-11T07:25:51.470Z,61760
2017-04-11T07:26:32.057Z,61664
2017-04-11T07:27:12.647Z,63616
2017-04-11T07:27:53.224Z,63680
2017-04-11T07:28:33.810Z,62240
2017-04-11T07:29:14.403Z,63040
2017-04-11T07:29:54.973Z,67136
2017-04-11T07:30:35.554Z,67680
2017-04-11T07:31:16.137Z,65344
2017-04-11T07:31:56.730Z,62144
2017-04-11T07:32:37.308Z,44096
2017-04-11T07:33:17.890Z,51488
2017-04-11T07:33:58.477Z,33632
2017-04-11T07:34:39.063Z,40320
2017-04-11T07:35:19.647Z,42592
2017-04-11T07:36:00.232Z,29760
2017-04-11T07:36:40.818Z,39808
2017-04-11T07:37:21.405Z,31424
2017-04-11T07:38:01.991Z,35136
2017-04-11T07:38:42.576Z,25888
2017-04-11T07:39:23.162Z,26528
2017-04-11T07:40:03.745Z,29728
2017-04-11T07:40:44.338Z,26784
2017-04-11T07:41:24.922Z,26624
2017-04-11T07:42:05.504Z,26880
2017-04-11T07:42:46.090Z,26496
2017-04-11T07:43:26.677Z,25600
2017-04-11T07:44:07.261Z,25440
2017-04-11T07:44:47.834Z,25568
2017-04-11T07:45:28.423Z,25792
2017-04-11T07:46:09.006Z,26112
2017-04-11T07:46:49.595Z,28096
2017-04-11T07:47:30.179Z,36960
2017-04-11T07:48:10.762Z,52352
2017-04-11T07:48:51.351Z,54880
2017-04-11T07:49:31.928Z,53536
2017-04-11T07:50:12.503Z,53152
2017-04-11T07:50:53.093Z,56288
2017-04-11T07:51:33.673Z,56800
2017-04-11T07:52:14.260Z,56864
2017-04-11T07:52:54.842Z,59616
2017-04-11T07:53:35.429Z,61056
2017-04-11T07:54:16.014Z,62880
2017-04-11T07:54:56.604Z,62400
2017-04-11T07:55:37.192Z,61472
2017-04-11T07:56:17.777Z,22720
2017-04-11T07:56:58.366Z,22496
2017-04-11T07:57:38.946Z,62496
2017-04-11T07:58:19.532Z,63712
2017-04-11T07:59:00.113Z,64512
2017-04-11T07:59:40.689Z,65600
2017-04-11T08:00:21.281Z,64928
2017-04-11T08:01:01.870Z,62080
2017-04-11T08:01:42.455Z,57920
2017-04-11T08:02:23.044Z,62112
2017-04-11T08:03:03.633Z,63200
2017-04-11T08:03:44.215Z,64544
2017-04-11T08:04:24.798Z,67008
2017-04-11T08:05:05.385Z,67040
2017-04-11T08:05:45.972Z,66304
2017-04-11T08:06:26.561Z,67040
2017-04-11T08:07:07.148Z,67232
2017-04-11T08:07:47.734Z,68000
2017-04-11T08:08:28.316Z,65120
2017-04-11T08:09:08.886Z,63840
2017-04-11T08:09:49.477Z,63808
2017-04-11T08:10:30.061Z,41248
2017-04-11T08:11:10.645Z,47232
2017-04-11T08:11:51.228Z,27040
2017-04-11T08:12:31.814Z,51840
2017-04-11T08:13:12.387Z,52768
2017-04-11T08:13:52.970Z,49056
2017-04-11T08:14:33.555Z,51968
2017-04-11T08:15:14.146Z,51264
2017-04-11T08:15:54.733Z,25760
2017-04-11T08:16:35.321Z,24480
2017-04-11T08:17:15.910Z,23232
2017-04-11T08:17:56.492Z,30368
2017-04-11T08:18:37.078Z,27872
2017-04-11T08:19:17.662Z,24256
2017-04-11T08:19:58.249Z,22336
2017-04-11T08:20:38.840Z,21216
2017-04-11T08:21:19.427Z,35488
2017-04-11T08:22:00.011Z,21760
2017-04-11T08:22:40.588Z,29536
2017-04-11T08:23:21.173Z,25792
2017-04-11T08:24:01.775Z,18784
2017-04-11T08:24:42.353Z,18304
2017-04-11T08:25:22.949Z,22080
2017-04-11T08:26:03.531Z,21536
2017-04-11T08:26:44.117Z,17724
2017-04-11T08:27:24.692Z,22944
2017-04-11T08:28:05.279Z,23200
2017-04-11T08:28:45.884Z,21792
2017-04-11T08:29:26.463Z,14392
2017-04-11T08:30:07.051Z,13656
2017-04-11T08:30:47.639Z,13780
2017-04-11T08:31:28.224Z,14052
2017-04-11T08:32:08.815Z,14516
2017-04-11T08:32:49.405Z,18400
2017-04-11T08:33:29.989Z,18592
2017-04-11T08:34:10.574Z,15796
2017-04-11T08:36:43.774Z,19584
2017-04-11T08:37:24.369Z,22336
2017-04-11T08:38:04.952Z,16384
2017-04-11T08:38:45.576Z,17392
2017-04-11T08:39:26.132Z,18944
2017-04-11T08:40:06.703Z,29152
2017-04-11T08:40:47.281Z,31040
2017-04-11T08:41:27.865Z,30016
2017-04-11T08:42:08.449Z,30240
2017-04-11T08:42:49.037Z,33184
2017-04-11T08:43:29.619Z,34496
2017-04-11T08:44:10.202Z,31552
2017-04-11T08:44:50.784Z,30720
2017-04-11T08:45:31.364Z,32320
2017-04-11T08:46:11.954Z,19840
2017-04-11T08:46:52.528Z,18656
2017-04-11T08:47:33.112Z,18056
2017-04-11T08:48:13.691Z,17776
2017-04-11T08:48:54.281Z,17676
2017-04-11T08:49:34.865Z,17568
2017-04-11T08:50:15.446Z,17300
2017-04-11T08:50:56.037Z,17908
2017-04-11T08:51:36.623Z,17488
2017-04-11T08:52:17.205Z,17052
2017-04-11T08:52:57.788Z,16960
2017-04-11T08:53:38.363Z,16812
2017-04-11T08:54:18.956Z,16660
2017-04-11T08:54:59.535Z,16668
2017-04-11T08:55:40.122Z,16456
2017-04-11T08:56:20.695Z,16144
2017-04-11T08:57:01.281Z,16096
2017-04-11T08:57:41.865Z,16344
2017-04-11T08:58:22.448Z,16952
2017-04-11T08:59:03.029Z,17308
2017-04-11T08:59:43.614Z,17496
2017-04-11T09:00:24.209Z,17692
2017-04-11T09:01:04.798Z,17756
2017-04-11T09:01:45.381Z,17448
2017-04-11T09:02:25.966Z,17264
2017-04-11T09:03:06.541Z,16976
2017-04-11T09:03:47.127Z,16724
2017-04-11T09:04:27.700Z,16496
2017-04-11T09:05:08.804Z,16100
2017-04-11T09:05:49.378Z,15812
2017-04-11T09:06:29.954Z,15452
2017-04-11T09:07:10.543Z,15092
2017-04-11T09:07:51.126Z,14624
2017-04-11T09:08:31.712Z,14340
2017-04-11T09:09:12.285Z,14164
2017-04-11T09:09:52.871Z,14096
2017-04-11T09:10:33.450Z,14076
2017-04-11T09:11:14.039Z,14080
2017-04-11T09:11:54.619Z,14028
2017-04-11T09:12:35.214Z,14012
2017-04-11T09:13:15.802Z,14088
2017-04-11T09:13:56.378Z,14252
2017-04-11T09:14:36.960Z,14492
2017-04-11T09:15:17.547Z,14640
2017-04-11T09:15:58.135Z,14692
2017-04-11T09:16:38.721Z,14728
2017-04-11T09:17:19.315Z,14932
2017-04-11T09:17:59.901Z,15252
2017-04-11T09:18:40.477Z,15708
2017-04-11T09:19:21.058Z,16304
2017-04-11T09:20:01.641Z,16600
2017-04-11T09:20:42.222Z,16736
2017-04-11T09:21:22.809Z,17088
2017-04-11T09:22:03.388Z,17120
2017-04-11T09:22:43.971Z,17528
2017-04-11T09:23:24.558Z,17672
2017-04-11T09:24:05.141Z,18528
2017-04-11T09:24:45.727Z,18880
2017-04-11T09:25:26.296Z,19136
2017-04-11T09:26:06.881Z,19072
2017-04-11T09:26:47.468Z,19072
2017-04-11T09:27:28.049Z,19200
2017-04-11T09:28:08.633Z,18592
2017-04-11T09:28:49.221Z,18108
2017-04-11T09:29:44.708Z,18128
2017-04-11T09:30:25.290Z,18528
2017-04-11T09:31:05.866Z,18000
2017-04-11T09:31:46.453Z,17644
2017-04-11T09:32:27.031Z,17336
2017-04-11T09:33:07.622Z,16936
2017-04-11T09:33:48.202Z,16440
2017-04-11T09:34:28.786Z,16124
2017-04-11T09:35:09.368Z,15972
2017-04-11T09:35:49.954Z,15676
2017-04-11T09:36:30.540Z,15416
2017-04-11T09:37:11.121Z,15224
2017-04-11T09:37:51.697Z,14980
2017-04-11T09:38:47.190Z,14712
2017-04-11T09:39:27.769Z,14556
2017-04-11T09:40:08.349Z,14412
2017-04-11T09:40:48.931Z,14296
2017-04-11T09:41:29.508Z,14200
2017-04-11T09:42:10.096Z,14100
2017-04-11T09:42:50.683Z,13972
2017-04-11T09:43:31.265Z,13816
2017-04-11T09:44:11.855Z,13668
2017-04-11T09:44:52.436Z,13576
2017-04-11T09:45:33.024Z,13520
2017-04-11T09:46:13.606Z,13560
2017-04-11T09:46:54.179Z,13604
2017-04-11T09:47:34.763Z,13636
2017-04-11T09:48:15.349Z,13656
2017-04-11T09:48:55.940Z,13636
2017-04-11T09:49:36.522Z,13556
2017-04-11T09:50:17.106Z,13444
2017-04-11T09:50:57.691Z,13332
2017-04-11T09:51:38.276Z,13248
2017-04-11T09:52:18.864Z,13212
2017-04-11T09:52:59.438Z,13268
2017-04-11T09:53:40.022Z,13332
2017-04-11T09:54:20.603Z,13352
2017-04-11T09:55:01.179Z,13324
2017-04-11T09:55:41.745Z,13204
2017-04-11T09:56:22.325Z,13200
2017-04-11T09:57:02.913Z,13376
2017-04-11T09:57:43.498Z,13592
2017-04-11T09:58:24.116Z,13836
2017-04-11T09:59:04.674Z,14040
2017-04-11T09:59:59.976Z,14740
2017-04-11T10:00:40.556Z,15104
2017-04-11T10:01:21.135Z,15412
2017-04-11T10:02:01.714Z,15824
2017-04-11T10:03:59.433Z,17104
2017-04-11T10:04:40.003Z,17868
2017-04-11T10:05:20.585Z,18048
2017-04-11T10:06:01.165Z,18380
2017-04-11T10:06:41.755Z,18944
2017-04-11T10:07:22.339Z,19104
2017-04-11T10:08:02.922Z,19072
2017-04-11T10:08:43.495Z,18944
2017-04-11T10:09:24.072Z,18848
2017-04-11T10:10:04.659Z,18656
2017-04-11T10:10:45.233Z,18720
2017-04-11T10:11:25.817Z,18752
2017-04-11T10:12:06.401Z,18344
2017-04-11T10:12:46.980Z,17912
2017-04-11T10:13:27.557Z,17884
2017-04-11T10:14:08.145Z,17772
2017-04-11T10:14:48.725Z,17816
2017-04-11T10:15:29.312Z,18184
2017-04-11T10:16:09.899Z,18192
2017-04-11T10:16:50.481Z,18464
2017-04-11T10:17:31.068Z,18056
2017-04-11T10:18:11.641Z,18432
2017-04-11T10:20:44.826Z,18128
2017-04-11T10:21:25.414Z,18040
2017-04-11T10:22:05.995Z,17936
2017-04-11T10:22:46.579Z,18032
2017-04-11T10:23:27.160Z,17996
2017-04-11T10:24:07.749Z,17756
2017-04-11T10:24:48.328Z,17312
2017-04-11T10:25:28.906Z,16748
2017-04-11T10:26:09.498Z,16452
2017-04-11T10:26:50.079Z,16196
2017-04-11T10:27:30.660Z,15628
2017-04-11T10:28:11.224Z,15332
2017-04-11T10:28:51.807Z,15132
2017-04-11T10:29:32.385Z,14996
2017-04-11T10:30:12.966Z,14864
2017-04-11T10:30:53.541Z,14868
2017-04-11T10:31:34.115Z,14836
2017-04-11T10:32:14.698Z,14648
2017-04-11T10:32:55.273Z,14432
2017-04-11T10:33:35.851Z,14316
2017-04-11T10:34:16.438Z,14024
2017-04-11T10:34:57.016Z,13628
2017-04-11T10:35:37.591Z,13212
2017-04-11T10:36:18.180Z,12816
2017-04-11T10:36:58.744Z,12488
2017-04-11T10:39:31.946Z,11472
2017-04-11T10:40:12.522Z,11380
2017-04-11T10:40:53.106Z,11308
2017-04-11T10:41:33.692Z,11256
2017-04-11T10:42:14.277Z,11260
2017-04-11T10:42:54.852Z,11312
2017-04-11T10:43:35.438Z,11332
2017-04-11T10:44:16.009Z,11236
2017-04-11T10:44:56.597Z,11148
2017-04-11T10:45:52.120Z,11296
2017-04-11T10:46:32.705Z,11484
2017-04-11T10:47:13.294Z,11500
2017-04-11T10:47:53.867Z,11336
2017-04-11T10:48:34.443Z,11516
2017-04-11T10:49:15.026Z,11432
2017-04-11T10:49:55.607Z,11072
2017-04-11T10:50:36.190Z,10856
2017-04-11T10:51:16.767Z,10368
2017-04-11T10:51:57.355Z,10028
2017-04-11T10:52:37.929Z,9676
2017-04-11T10:53:18.521Z,9412
2017-04-11T10:53:59.115Z,8812
2017-04-11T10:54:39.678Z,8440
2017-04-11T10:55:20.259Z,8008
2017-04-11T10:56:00.838Z,7940
2017-04-11T10:56:41.396Z,7876
2017-04-11T10:57:21.987Z,7844
2017-04-11T10:58:02.572Z,7816
2017-04-11T10:58:43.150Z,7784
2017-04-11T10:59:23.732Z,7756
2017-04-11T11:00:04.317Z,7772
2017-04-11T11:00:44.902Z,7704
2017-04-11T11:01:25.483Z,7600
2017-04-11T11:02:06.076Z,7524
2017-04-11T11:02:46.641Z,7400
2017-04-11T11:03:27.222Z,7316
2017-04-11T11:04:07.818Z,7284
2017-04-11T11:04:48.382Z,7296
2017-04-11T11:05:28.964Z,7336
2017-04-11T11:06:09.541Z,7316
2017-04-11T11:06:50.119Z,7252
2017-04-11T11:07:30.700Z,7184
2017-04-11T11:08:11.268Z,7188
2017-04-11T11:08:51.857Z,7104
2017-04-11T11:09:32.432Z,7048
2017-04-11T11:10:13.005Z,6808
2017-04-11T11:10:53.587Z,6300
2017-04-11T11:11:34.161Z,6452
2017-04-11T11:12:14.740Z,6592
2017-04-11T11:12:55.319Z,6108
2017-04-11T11:13:35.894Z,6160
2017-04-11T11:14:16.485Z,6812
2017-04-11T11:14:57.068Z,7020
2017-04-11T11:15:37.643Z,7120
2017-04-11T11:16:18.223Z,7116
2017-04-11T11:16:58.812Z,6796
2017-04-11T11:17:39.390Z,6648
2017-04-11T11:18:19.977Z,6856
2017-04-11T11:19:00.555Z,7132
2017-04-11T11:19:41.152Z,7268
2017-04-11T11:21:40.346Z,7648
2017-04-11T11:22:20.926Z,7728
2017-04-11T11:23:01.500Z,7984
2017-04-11T11:23:42.089Z,8484
2017-04-11T11:24:22.657Z,9248
2017-04-11T11:25:03.230Z,9876
2017-04-11T11:25:43.807Z,10836
2017-04-11T11:26:24.389Z,11456
2017-04-11T11:27:04.974Z,11776
2017-04-11T11:27:45.557Z,12056
2017-04-11T11:28:26.138Z,12396
2017-04-11T11:29:06.721Z,12692
2017-04-11T11:29:47.301Z,12828
2017-04-11T11:30:27.881Z,12940
2017-04-11T11:31:08.463Z,12872
2017-04-11T11:31:49.043Z,12848
2017-04-11T11:32:29.612Z,13068
2017-04-11T11:33:10.196Z,12808
2017-04-11T11:33:50.782Z,12360
2017-04-11T11:34:31.358Z,12084
2017-04-11T11:35:11.952Z,12144
2017-04-11T11:35:52.531Z,12300
2017-04-11T11:36:33.123Z,12036
2017-04-11T11:37:13.699Z,11540
2017-04-11T11:37:54.287Z,11360
2017-04-11T11:38:34.867Z,11184
2017-04-11T11:39:15.466Z,11068
2017-04-11T11:39:56.040Z,10984
2017-04-11T11:40:36.628Z,10960
2017-04-11T11:41:17.210Z,10688
2017-04-11T11:41:57.787Z,10420
2017-04-11T11:42:38.368Z,10060
2017-04-11T11:43:18.954Z,9584
2017-04-11T11:43:59.535Z,9680
2017-04-11T11:44:40.125Z,9352
2017-04-11T11:45:20.709Z,8964
2017-04-11T11:46:01.297Z,8636
2017-04-11T11:46:41.875Z,8956
2017-04-11T11:47:22.461Z,8668
2017-04-11T11:48:03.050Z,7872
2017-04-11T11:48:43.633Z,7532
2017-04-11T11:49:24.214Z,7328
2017-04-11T11:50:04.790Z,7144
2017-04-11T11:50:45.365Z,7296
2017-04-11T11:51:25.945Z,6776
2017-04-11T11:52:06.532Z,6732
2017-04-11T11:52:47.119Z,6632
2017-04-11T11:53:27.706Z,6600
2017-04-11T11:54:08.286Z,6688
2017-04-11T11:54:48.871Z,5924
2017-04-11T11:55:29.462Z,5872
2017-04-11T11:56:10.032Z,5840
2017-04-11T11:56:50.631Z,5816
2017-04-11T11:57:31.215Z,5856
2017-04-11T11:58:11.799Z,5940
2017-04-11T11:58:52.363Z,5964
2017-04-11T11:59:32.938Z,5956
2017-04-11T12:00:13.518Z,6040
2017-04-11T12:00:54.094Z,6848
2017-04-11T12:01:34.678Z,7232
2017-04-11T12:02:15.263Z,7396
2017-04-11T12:02:55.847Z,7272
2017-04-11T12:05:29.042Z,8144
2017-04-11T12:06:09.627Z,7976
2017-04-11T12:06:50.210Z,7948
2017-04-11T12:07:30.795Z,8152
2017-04-11T12:08:11.382Z,8480
2017-04-11T12:08:51.973Z,8276
2017-04-11T12:09:32.542Z,8180
2017-04-11T12:10:13.117Z,7832
2017-04-11T12:10:53.705Z,7120
2017-04-11T12:11:34.282Z,6628
2017-04-11T12:12:14.869Z,7136
2017-04-11T12:12:55.456Z,6804
2017-04-11T12:13:36.036Z,7724
2017-04-11T12:14:16.613Z,8132
2017-04-11T12:14:57.202Z,8496
2017-04-11T12:15:37.782Z,8572
2017-04-11T12:16:18.355Z,9296
2017-04-11T12:16:58.945Z,9732
2017-04-11T12:17:39.523Z,10004
2017-04-11T12:18:20.104Z,10168
2017-04-11T12:19:00.692Z,10156
2017-04-11T12:19:41.277Z,9928
2017-04-11T12:20:21.855Z,9984
2017-04-11T12:21:02.440Z,9800
2017-04-11T12:21:43.017Z,9952
2017-04-11T12:22:23.599Z,9848
2017-04-11T12:23:04.179Z,9228
2017-04-11T12:23:44.757Z,9068
2017-04-11T12:24:25.340Z,9176
2017-04-11T12:25:05.933Z,9076
2017-04-11T12:25:46.526Z,8892
2017-04-11T12:26:27.109Z,9576
2017-04-11T12:27:07.704Z,9656
2017-04-11T12:27:48.281Z,9784
2017-04-11T12:28:28.870Z,9660
2017-04-11T12:29:09.452Z,9272
2017-04-11T12:29:50.036Z,8780
2017-04-11T12:30:30.601Z,8624
2017-04-11T12:31:11.191Z,8480
2017-04-11T12:31:51.774Z,8336
2017-04-11T12:32:32.354Z,8220
2017-04-11T12:33:12.945Z,8152
2017-04-11T12:33:53.529Z,8076
2017-04-11T12:34:34.111Z,8228
2017-04-11T12:35:14.697Z,8472
2017-04-11T12:35:55.277Z,8556
2017-04-11T12:36:35.861Z,8516
2017-04-11T12:37:16.444Z,8456
2017-04-11T12:37:57.029Z,7992
2017-04-11T12:38:37.616Z,7844
2017-04-11T12:39:18.203Z,7736
2017-04-11T12:39:58.787Z,6808
2017-04-11T12:40:39.363Z,6832
2017-04-11T12:41:19.953Z,7484
2017-04-11T12:42:00.533Z,7556
2017-04-11T12:42:41.114Z,7464
2017-04-11T12:43:21.694Z,7180
2017-04-11T12:44:02.280Z,6832
2017-04-11T12:44:42.849Z,6640
2017-04-11T12:45:23.438Z,6528
2017-04-11T12:46:04.023Z,5412
2017-04-11T12:46:44.590Z,5584
2017-04-11T12:47:25.166Z,5220
2017-04-11T12:48:05.748Z,5088
2017-04-11T12:48:46.323Z,5576
2017-04-11T12:49:26.945Z,5272
2017-04-11T12:50:07.521Z,4904
2017-04-11T12:50:48.095Z,4960
2017-04-11T12:51:28.682Z,5360
2017-04-11T12:52:09.270Z,5248
2017-04-11T12:52:49.854Z,5236
2017-04-11T12:53:30.437Z,5224